Time;durP1;ratioP1;P1;durP2;ratioP2;P2;SDS_P1;SDS_P2;PMS_P1;PMS_P2;Temp;Humidity;BMP_temperature;BMP_pressure;BME280_temperature;BME280_humidity;BME280_pressure;Samples;Min_cycle;Max_cycle;Signal;HPM_P1;HPM_P2
2022/01/01 00:01:50;;;;;;;18.97;13.30;;;12.70;99.90;;;;;;5040866;28;20788;-61
2022/01/01 00:04:19;;;;;;;15.20;12.53;;;12.80;99.90;;;;;;5033123;28;20806;-60
2022/01/01 00:06:46;;;;;;;20.57;14.13;;;12.80;99.90;;;;;;5033121;28;20452;-59
2022/01/01 00:09:13;;;;;;;18.07;13.50;;;12.80;99.90;;;;;;5033963;28;20981;-60
2022/01/01 00:11:41;;;;;;;17.30;12.20;;;12.80;99.90;;;;;;5034869;28;20441;-59
2022/01/01 00:14:08;;;;;;;14.70;11.37;;;12.80;99.90;;;;;;5034361;28;20528;-60
2022/01/01 00:16:35;;;;;;;17.07;11.97;;;12.70;99.90;;;;;;5034708;28;20972;-59
2022/01/01 00:19:02;;;;;;;20.33;12.77;;;12.70;99.90;;;;;;5034964;28;20461;-61
2022/01/01 00:21:31;;;;;;;17.00;12.30;;;12.70;99.90;;;;;;5034525;28;20964;-60
2022/01/01 00:23:58;;;;;;;17.40;11.30;;;12.70;99.90;;;;;;5035273;28;20441;-60
2022/01/01 00:26:25;;;;;;;15.07;12.37;;;12.70;99.90;;;;;;5038619;28;20437;-60
2022/01/01 00:28:52;;;;;;;16.17;12.87;;;12.70;99.90;;;;;;5038712;28;20833;-60
2022/01/01 00:31:19;;;;;;;16.13;12.40;;;12.70;99.90;;;;;;5039301;28;20821;-59
2022/01/01 00:33:46;;;;;;;14.70;11.57;;;12.70;99.90;;;;;;5039437;28;20476;-58
2022/01/01 00:36:13;;;;;;;18.63;11.87;;;12.70;99.90;;;;;;5037738;28;20449;-61
2022/01/01 00:38:42;;;;;;;19.07;12.30;;;12.70;99.90;;;;;;5037075;28;20464;-59
2022/01/01 00:41:09;;;;;;;22.07;15.00;;;12.70;99.90;;;;;;5037640;28;20429;-58
2022/01/01 00:43:36;;;;;;;15.67;13.30;;;12.70;99.90;;;;;;5037327;28;20552;-60
2022/01/01 00:46:03;;;;;;;23.80;14.57;;;12.70;99.90;;;;;;5036967;28;20455;-60
2022/01/01 00:48:30;;;;;;;20.60;13.63;;;12.70;99.90;;;;;;5036973;28;20457;-61
2022/01/01 00:50:58;;;;;;;18.07;13.73;;;12.80;99.90;;;;;;5037054;28;20452;-59
2022/01/01 00:53:25;;;;;;;17.40;11.60;;;12.70;99.90;;;;;;5037312;28;20448;-58
2022/01/01 00:55:53;;;;;;;21.70;13.47;;;12.80;99.90;;;;;;5036563;28;20448;-59
2022/01/01 00:58:20;;;;;;;16.73;12.83;;;12.80;99.90;;;;;;5036362;28;20449;-59
2022/01/01 01:00:48;;;;;;;18.37;12.10;;;12.80;99.90;;;;;;5036328;28;20460;-57
2022/01/01 01:03:16;;;;;;;17.33;12.87;;;12.80;99.90;;;;;;5036108;28;20448;-58
2022/01/01 01:05:45;;;;;;;16.90;13.07;;;12.80;99.90;;;;;;5036316;28;20469;-59
2022/01/01 01:08:14;;;;;;;19.30;12.23;;;12.80;99.90;;;;;;5035979;28;20452;-58
2022/01/01 01:10:44;;;;;;;18.93;13.60;;;12.80;99.90;;;;;;5036183;28;20572;-58
2022/01/01 01:13:15;;;;;;;14.80;11.77;;;12.80;99.90;;;;;;5040643;28;20548;-59
2022/01/01 01:15:42;;;;;;;16.60;12.40;;;12.80;99.90;;;;;;5036187;28;20513;-59
2022/01/01 01:18:09;;;;;;;18.57;13.30;;;12.80;99.90;;;;;;5035793;28;20456;-59
2022/01/01 01:20:36;;;;;;;17.90;13.30;;;12.80;99.90;;;;;;5035982;28;20473;-59
2022/01/01 01:23:03;;;;;;;16.57;12.30;;;12.80;99.90;;;;;;5035915;28;20897;-57
2022/01/01 01:25:38;;;;;;;18.13;13.93;;;12.80;99.90;;;;;;5035976;28;20436;-58
2022/01/01 01:28:07;;;;;;;19.37;14.53;;;12.80;99.90;;;;;;5035765;28;20424;-59
2022/01/01 01:30:36;;;;;;;20.17;14.00;;;12.80;99.90;;;;;;5035812;28;20473;-60
2022/01/01 01:33:04;;;;;;;20.60;13.73;;;12.80;99.90;;;;;;5035523;28;20452;-59
2022/01/01 01:35:31;;;;;;;20.60;15.03;;;12.80;99.90;;;;;;5034890;28;20485;-57
2022/01/01 01:37:58;;;;;;;16.23;12.60;;;12.80;99.90;;;;;;5035618;28;20918;-60
2022/01/01 01:40:25;;;;;;;21.97;15.10;;;12.80;99.90;;;;;;5035329;28;20481;-59
2022/01/01 01:42:52;;;;;;;18.37;14.00;;;12.90;99.90;;;;;;5035726;28;20460;-60
2022/01/01 01:45:21;;;;;;;22.53;15.40;;;12.90;99.90;;;;;;5035335;28;20815;-58
2022/01/01 01:47:51;;;;;;;19.97;14.77;;;12.80;99.90;;;;;;5035290;28;20817;-59
2022/01/01 01:50:20;;;;;;;25.83;16.10;;;12.90;99.90;;;;;;5035734;28;20480;-59
2022/01/01 01:52:51;;;;;;;20.00;14.50;;;12.90;99.90;;;;;;5035213;28;20456;-58
2022/01/01 01:55:19;;;;;;;19.13;13.97;;;12.80;99.90;;;;;;5035426;28;20469;-60
2022/01/01 01:57:46;;;;;;;18.80;15.03;;;12.80;99.90;;;;;;5035341;28;20468;-57
2022/01/01 02:00:31;;;;;;;22.70;16.30;;;12.90;99.90;;;;;;5035357;28;20472;-57
2022/01/01 02:03:00;;;;;;;23.30;16.23;;;12.90;99.90;;;;;;5035378;28;20532;-58
2022/01/01 02:05:27;;;;;;;20.43;14.90;;;12.80;99.90;;;;;;5034883;28;20437;-59
2022/01/01 02:07:56;;;;;;;19.23;14.90;;;12.90;99.90;;;;;;5035391;28;20460;-57
2022/01/01 02:10:25;;;;;;;21.47;16.60;;;12.90;99.90;;;;;;5034930;28;20476;-58
2022/01/01 02:12:55;;;;;;;18.03;14.83;;;12.90;99.90;;;;;;5034810;28;20449;-59
2022/01/01 02:15:42;;;;;;;18.17;15.20;;;12.90;99.90;;;;;;5038766;28;20547;-56
2022/01/01 02:18:10;;;;;;;26.83;15.10;;;12.90;99.90;;;;;;5035023;28;20499;-55
2022/01/01 02:20:39;;;;;;;20.17;14.37;;;12.90;99.90;;;;;;5034480;28;20468;-56
2022/01/01 02:23:10;;;;;;;18.17;14.27;;;12.90;99.90;;;;;;5034820;28;20445;-55
2022/01/01 02:25:38;;;;;;;20.80;14.10;;;12.90;99.90;;;;;;5034951;28;20433;-55
2022/01/01 02:28:05;;;;;;;19.60;15.37;;;12.90;99.90;;;;;;5034765;28;20453;-55
2022/01/01 02:30:32;;;;;;;18.90;15.60;;;12.90;99.90;;;;;;5034259;28;20480;-53
2022/01/01 02:32:59;;;;;;;20.77;14.27;;;12.90;99.90;;;;;;5034384;28;20449;-56
2022/01/01 02:35:26;;;;;;;21.80;15.53;;;12.90;99.90;;;;;;5034159;28;20473;-53
2022/01/01 02:37:58;;;;;;;20.27;13.67;;;12.90;99.90;;;;;;5034612;28;20476;-55
2022/01/01 02:40:25;;;;;;;20.70;14.43;;;13.00;99.90;;;;;;5034286;28;20481;-55
2022/01/01 02:42:53;;;;;;;21.23;13.97;;;13.00;99.90;;;;;;5034416;28;20441;-55
2022/01/01 02:45:20;;;;;;;23.53;15.23;;;13.00;99.90;;;;;;5034173;28;20441;-54
2022/01/01 02:47:48;;;;;;;21.23;15.60;;;13.00;99.90;;;;;;5033099;28;20445;-54
2022/01/01 02:50:15;;;;;;;23.10;14.83;;;12.90;99.90;;;;;;5034106;28;20491;-56
2022/01/01 02:52:42;;;;;;;23.07;15.30;;;12.90;99.90;;;;;;5034272;28;20445;-55
2022/01/01 02:55:11;;;;;;;19.07;14.70;;;12.90;99.90;;;;;;5033944;28;20484;-55
2022/01/01 02:57:38;;;;;;;16.40;13.30;;;12.90;99.90;;;;;;5033988;28;20945;-53
2022/01/01 03:00:07;;;;;;;18.37;14.03;;;12.90;99.90;;;;;;5034176;28;20465;-54
2022/01/01 03:02:34;;;;;;;20.23;13.87;;;13.00;99.90;;;;;;5034146;28;20847;-53
2022/01/01 03:05:01;;;;;;;23.93;13.93;;;12.90;99.90;;;;;;5034054;28;20929;-55
2022/01/01 03:07:28;;;;;;;20.43;13.07;;;12.90;99.90;;;;;;5035728;28;20816;-56
2022/01/01 03:09:55;;;;;;;21.07;14.77;;;12.90;99.90;;;;;;5035250;28;20552;-55
2022/01/01 03:12:24;;;;;;;18.50;13.03;;;12.90;99.90;;;;;;5035089;28;20453;-56
2022/01/01 03:14:51;;;;;;;22.50;14.80;;;12.90;99.90;;;;;;5034800;28;20481;-55
2022/01/01 03:17:18;;;;;;;22.60;15.47;;;13.00;99.90;;;;;;5034056;28;20453;-56
2022/01/01 03:19:45;;;;;;;19.00;14.40;;;13.00;99.90;;;;;;5034070;28;20477;-55
2022/01/01 03:22:12;;;;;;;23.37;13.87;;;12.90;99.90;;;;;;5033791;28;20445;-56
2022/01/01 03:24:39;;;;;;;20.30;12.73;;;12.90;99.90;;;;;;5033713;28;20445;-55
2022/01/01 03:27:06;;;;;;;18.93;12.97;;;12.90;99.90;;;;;;5034139;28;20445;-54
2022/01/01 03:29:34;;;;;;;19.73;13.70;;;12.90;99.90;;;;;;5033642;28;20468;-55
2022/01/01 03:32:02;;;;;;;20.90;13.30;;;12.90;99.90;;;;;;5033491;28;20456;-55
2022/01/01 03:34:29;;;;;;;20.87;14.20;;;12.90;99.90;;;;;;5033205;28;20484;-56
2022/01/01 03:36:56;;;;;;;19.10;14.03;;;12.90;99.90;;;;;;5033573;28;20449;-56
2022/01/01 03:39:23;;;;;;;19.77;14.33;;;12.90;99.90;;;;;;5033033;28;20477;-55
2022/01/01 03:41:50;;;;;;;19.87;14.67;;;12.90;99.90;;;;;;5033108;28;20486;-55
2022/01/01 03:44:17;;;;;;;18.73;14.33;;;12.90;99.90;;;;;;5033220;28;20456;-55
2022/01/01 03:46:46;;;;;;;17.03;13.90;;;12.90;99.90;;;;;;5032873;28;20445;-54
2022/01/01 03:49:14;;;;;;;18.77;13.27;;;12.90;99.90;;;;;;5035864;28;20476;-57
2022/01/01 03:51:41;;;;;;;23.50;15.30;;;12.90;99.90;;;;;;5038572;28;20468;-55
2022/01/01 03:54:09;;;;;;;18.23;13.70;;;12.90;99.90;;;;;;5037700;28;20453;-56
2022/01/01 03:56:37;;;;;;;19.97;13.50;;;12.90;99.90;;;;;;5035001;28;20476;-54
2022/01/01 03:59:05;;;;;;;17.93;12.70;;;12.90;99.90;;;;;;5032907;28;20568;-55
2022/01/01 04:01:32;;;;;;;29.73;13.83;;;12.90;99.90;;;;;;5032778;28;20441;-53
2022/01/01 04:04:00;;;;;;;17.10;12.53;;;12.90;99.90;;;;;;5032757;28;20445;-54
2022/01/01 04:09:06;;;;;;;24.23;14.97;;;12.90;99.90;;;;;;5091115;27;20570;-55
2022/01/01 04:11:34;;;;;;;16.97;13.17;;;12.90;99.90;;;;;;5090569;28;20473;-55
2022/01/01 04:14:01;;;;;;;24.53;13.70;;;12.90;99.90;;;;;;5090428;28;20537;-54
2022/01/01 04:16:28;;;;;;;21.57;13.77;;;12.90;99.90;;;;;;5090454;28;20451;-56
2022/01/01 04:18:55;;;;;;;16.70;14.10;;;12.90;99.90;;;;;;5090134;28;20465;-54
2022/01/01 04:21:22;;;;;;;21.73;14.23;;;12.90;99.90;;;;;;5104686;22;20567;-56
2022/01/01 04:23:49;;;;;;;26.47;16.43;;;12.90;99.90;;;;;;5051187;28;20444;-56
2022/01/01 04:26:17;;;;;;;20.77;14.03;;;12.90;99.90;;;;;;5051138;28;20448;-56
2022/01/01 04:28:44;;;;;;;25.83;14.40;;;12.90;99.90;;;;;;5051218;28;20562;-56
2022/01/01 04:31:13;;;;;;;18.50;14.47;;;12.90;99.90;;;;;;5050757;28;21023;-55
2022/01/01 04:33:40;;;;;;;22.53;14.40;;;12.90;99.90;;;;;;5051270;28;20448;-55
2022/01/01 04:36:07;;;;;;;19.93;14.43;;;12.90;99.90;;;;;;5050960;28;20440;-57
2022/01/01 04:38:39;;;;;;;23.60;13.60;;;12.90;99.90;;;;;;5050357;28;20466;-55
2022/01/01 04:41:08;;;;;;;18.77;14.17;;;12.90;99.90;;;;;;5050607;28;20839;-55
2022/01/01 04:43:37;;;;;;;18.70;14.40;;;12.90;99.90;;;;;;5050396;28;20457;-55
2022/01/01 04:46:04;;;;;;;17.30;14.10;;;12.90;99.90;;;;;;5050183;28;20524;-55
2022/01/01 04:48:31;;;;;;;23.33;15.70;;;12.90;99.90;;;;;;5050260;28;20487;-55
2022/01/01 04:50:58;;;;;;;22.87;16.13;;;12.90;99.90;;;;;;5049569;28;20441;-56
2022/01/01 04:53:25;;;;;;;19.87;14.27;;;12.90;99.90;;;;;;5049950;28;20444;-55
2022/01/01 04:55:52;;;;;;;21.50;14.10;;;12.90;99.90;;;;;;5049670;28;20452;-55
2022/01/01 04:58:19;;;;;;;20.30;13.00;;;12.90;99.90;;;;;;5049643;28;20436;-55
2022/01/01 05:00:48;;;;;;;20.17;14.20;;;12.90;99.90;;;;;;5049482;28;20456;-56
2022/01/01 05:03:15;;;;;;;19.93;14.77;;;12.90;99.90;;;;;;5049784;28;20542;-56
2022/01/01 05:05:42;;;;;;;21.60;14.40;;;12.90;99.90;;;;;;5049846;28;20453;-56
2022/01/01 05:08:09;;;;;;;23.43;13.53;;;12.90;99.90;;;;;;5049630;28;20491;-56
2022/01/01 05:10:36;;;;;;;25.60;14.80;;;12.90;99.90;;;;;;5049496;28;20535;-56
2022/01/01 05:13:03;;;;;;;21.40;13.67;;;12.90;99.90;;;;;;5049261;28;20464;-56
2022/01/01 05:15:31;;;;;;;23.47;15.30;;;12.90;99.90;;;;;;5049248;28;20510;-56
2022/01/01 05:17:59;;;;;;;20.40;14.17;;;12.90;99.90;;;;;;5049457;28;20853;-56
2022/01/01 05:20:27;;;;;;;23.70;13.20;;;12.90;99.90;;;;;;5036245;28;20444;-56
2022/01/01 05:22:54;;;;;;;18.87;13.97;;;12.90;99.90;;;;;;5035680;28;20484;-56
2022/01/01 05:25:21;;;;;;;22.97;13.40;;;12.80;99.90;;;;;;5036094;28;20445;-56
2022/01/01 05:27:48;;;;;;;21.47;13.67;;;12.90;99.90;;;;;;5035719;28;20480;-56
2022/01/01 05:30:15;;;;;;;21.80;12.93;;;12.80;99.90;;;;;;5035791;28;20977;-56
2022/01/01 05:32:42;;;;;;;21.50;14.93;;;12.80;99.90;;;;;;5035931;28;20465;-56
2022/01/01 05:35:11;;;;;;;22.67;14.37;;;12.80;99.90;;;;;;5036048;28;20456;-56
2022/01/01 05:37:38;;;;;;;19.77;13.20;;;12.80;99.90;;;;;;5035654;28;20930;-56
2022/01/01 05:40:07;;;;;;;20.87;13.87;;;12.80;99.90;;;;;;5036032;28;20449;-56
2022/01/01 05:42:34;;;;;;;24.83;14.50;;;12.80;99.90;;;;;;5035428;28;20965;-56
2022/01/01 05:45:01;;;;;;;18.07;12.97;;;12.80;99.90;;;;;;5035863;28;20452;-56
2022/01/01 05:47:28;;;;;;;24.97;13.90;;;12.70;99.90;;;;;;5035395;28;20890;-56
2022/01/01 05:49:56;;;;;;;22.80;13.00;;;12.70;99.90;;;;;;5035480;28;20949;-56
2022/01/01 05:52:25;;;;;;;24.20;13.37;;;12.70;99.90;;;;;;5035639;28;20465;-56
2022/01/01 05:54:52;;;;;;;24.17;14.07;;;12.70;99.90;;;;;;5035370;28;20937;-56
2022/01/01 05:57:19;;;;;;;23.67;14.03;;;12.70;99.90;;;;;;5036516;28;20449;-55
2022/01/01 05:59:46;;;;;;;19.10;13.90;;;12.70;99.90;;;;;;5035475;28;20455;-56
2022/01/01 06:02:13;;;;;;;23.37;13.93;;;12.70;99.90;;;;;;5035333;28;20469;-56
2022/01/01 06:04:40;;;;;;;22.50;14.37;;;12.70;99.90;;;;;;5035946;28;20449;-56
2022/01/01 06:07:08;;;;;;;21.80;13.67;;;12.70;99.90;;;;;;5035388;28;20441;-56
2022/01/01 06:09:36;;;;;;;22.03;14.10;;;12.70;99.90;;;;;;5034926;28;20488;-56
2022/01/01 06:12:04;;;;;;;22.20;14.43;;;12.70;99.90;;;;;;5035180;28;20488;-56
2022/01/01 06:14:31;;;;;;;20.80;13.93;;;12.70;99.90;;;;;;5034882;28;20452;-56
2022/01/01 06:16:58;;;;;;;22.03;14.50;;;12.70;99.90;;;;;;5034870;28;20445;-56
2022/01/01 06:19:25;;;;;;;24.70;14.53;;;12.70;99.90;;;;;;5034774;28;20445;-55
2022/01/01 06:21:52;;;;;;;22.47;15.43;;;12.70;99.90;;;;;;5035075;28;20473;-55
2022/01/01 06:24:19;;;;;;;24.03;13.00;;;12.70;99.90;;;;;;5034696;28;20457;-55
2022/01/01 06:26:48;;;;;;;26.27;15.37;;;12.70;99.90;;;;;;5035368;28;20461;-55
2022/01/01 06:29:15;;;;;;;27.73;16.33;;;12.80;99.90;;;;;;5034972;28;20481;-55
2022/01/01 06:31:42;;;;;;;33.40;16.77;;;12.70;99.90;;;;;;5034878;28;20469;-55
2022/01/01 06:34:09;;;;;;;25.87;17.07;;;12.80;99.90;;;;;;5035943;28;20809;-55
2022/01/01 06:36:36;;;;;;;24.53;15.33;;;12.80;99.90;;;;;;5034735;28;20452;-55
2022/01/01 06:39:04;;;;;;;23.27;17.00;;;12.80;99.90;;;;;;5034900;28;20999;-55
2022/01/01 06:41:31;;;;;;;31.17;15.33;;;12.80;99.90;;;;;;5034631;28;20461;-54
2022/01/01 06:44:00;;;;;;;30.10;16.37;;;12.80;99.90;;;;;;5034628;28;20814;-55
2022/01/01 06:46:27;;;;;;;31.20;17.43;;;12.70;99.90;;;;;;5034945;28;20484;-55
2022/01/01 06:48:55;;;;;;;26.57;16.50;;;12.70;99.90;;;;;;5034412;28;20488;-55
2022/01/01 06:51:22;;;;;;;29.63;18.40;;;12.70;99.90;;;;;;5034487;28;20465;-55
2022/01/01 06:53:49;;;;;;;28.07;18.40;;;12.70;99.90;;;;;;5034468;28;20536;-55
2022/01/01 06:56:16;;;;;;;30.60;17.63;;;12.70;99.90;;;;;;5034675;28;20448;-55
2022/01/01 06:58:44;;;;;;;28.20;19.50;;;12.80;99.90;;;;;;5034593;28;20441;-55
2022/01/01 07:01:13;;;;;;;27.80;19.60;;;12.70;99.90;;;;;;5034122;28;20469;-56
2022/01/01 07:03:40;;;;;;;30.13;18.67;;;12.70;99.90;;;;;;5035415;28;20449;-55
2022/01/01 07:06:07;;;;;;;32.57;19.23;;;12.70;99.90;;;;;;5035429;28;20904;-55
2022/01/01 07:08:34;;;;;;;28.67;18.70;;;12.70;99.90;;;;;;5035551;28;21011;-56
2022/01/01 07:11:01;;;;;;;29.13;19.30;;;12.70;99.90;;;;;;5035829;28;20949;-56
2022/01/01 07:13:28;;;;;;;25.93;16.77;;;12.70;99.90;;;;;;5036233;28;20449;-55
2022/01/01 07:15:55;;;;;;;33.90;19.20;;;12.70;99.90;;;;;;5036073;28;20453;-55
2022/01/01 07:18:24;;;;;;;30.50;18.87;;;12.70;99.90;;;;;;5035418;28;20441;-56
2022/01/01 07:20:51;;;;;;;28.57;18.60;;;12.70;99.90;;;;;;5035434;28;20437;-56
2022/01/01 07:23:18;;;;;;;31.20;18.43;;;12.70;99.90;;;;;;5035626;28;20452;-55
2022/01/01 07:25:45;;;;;;;32.03;19.47;;;12.70;99.90;;;;;;5035964;28;20459;-53
2022/01/01 07:28:14;;;;;;;28.17;18.10;;;12.70;99.90;;;;;;5035911;28;20480;-55
2022/01/01 07:30:41;;;;;;;25.40;18.13;;;12.70;99.90;;;;;;5035658;28;20476;-55
2022/01/01 07:33:08;;;;;;;35.53;18.83;;;12.70;99.90;;;;;;5035640;28;20467;-55
2022/01/01 07:35:37;;;;;;;30.97;20.27;;;12.70;99.90;;;;;;5035852;28;20456;-55
2022/01/01 07:38:04;;;;;;;29.90;18.50;;;12.70;99.90;;;;;;5035388;28;20457;-55
2022/01/01 07:40:34;;;;;;;28.43;19.43;;;12.70;99.90;;;;;;5035532;28;20464;-56
2022/01/01 07:43:01;;;;;;;24.17;17.80;;;12.70;99.90;;;;;;5036328;28;20504;-56
2022/01/01 07:45:28;;;;;;;28.23;17.60;;;12.70;99.90;;;;;;5035859;28;20457;-55
2022/01/01 07:47:55;;;;;;;29.27;17.40;;;12.70;99.90;;;;;;5036529;28;20463;-56
2022/01/01 07:50:23;;;;;;;32.73;18.77;;;12.70;99.90;;;;;;5035218;28;20437;-56
2022/01/01 07:52:51;;;;;;;27.77;16.87;;;12.70;99.90;;;;;;5035017;28;20465;-56
2022/01/01 07:55:18;;;;;;;27.53;17.70;;;12.70;99.90;;;;;;5034656;28;20449;-56
2022/01/01 07:57:45;;;;;;;31.57;17.30;;;12.70;99.90;;;;;;5034168;28;20437;-56
2022/01/01 08:00:13;;;;;;;24.33;15.20;;;12.80;99.90;;;;;;5033056;28;20433;-56
2022/01/01 08:02:41;;;;;;;27.53;16.27;;;12.80;99.90;;;;;;5033550;28;20469;-55
2022/01/01 08:05:10;;;;;;;25.80;17.47;;;12.80;99.90;;;;;;5033199;28;20448;-56
2022/01/01 08:07:37;;;;;;;27.27;16.87;;;12.80;99.90;;;;;;5033579;28;20456;-56
2022/01/01 08:10:07;;;;;;;24.57;15.43;;;12.80;99.90;;;;;;5033212;28;20564;-56
2022/01/01 08:12:34;;;;;;;24.10;15.53;;;12.80;99.90;;;;;;5032805;28;20475;-56
2022/01/01 08:15:01;;;;;;;27.47;15.27;;;12.90;99.90;;;;;;5032913;28;20452;-56
2022/01/01 08:17:28;;;;;;;22.00;15.00;;;12.90;99.90;;;;;;5032923;28;20449;-56
2022/01/01 08:19:55;;;;;;;20.80;14.43;;;12.90;99.90;;;;;;5033946;28;20444;-56
2022/01/01 08:22:22;;;;;;;18.73;13.37;;;12.90;99.90;;;;;;5033521;28;20496;-56
2022/01/01 08:24:49;;;;;;;24.13;13.40;;;12.90;99.90;;;;;;5033597;28;20949;-55
2022/01/01 08:27:18;;;;;;;27.53;15.10;;;13.00;99.90;;;;;;5033507;28;20483;-56
2022/01/01 08:29:45;;;;;;;22.07;13.47;;;13.00;99.90;;;;;;5034693;28;20485;-56
2022/01/01 08:32:12;;;;;;;22.43;13.97;;;13.00;99.90;;;;;;5034847;28;20847;-56
2022/01/01 08:34:39;;;;;;;19.87;13.57;;;13.10;99.90;;;;;;5035112;28;20844;-56
2022/01/01 08:37:07;;;;;;;22.50;14.40;;;13.10;99.90;;;;;;5033663;28;20941;-56
2022/01/01 08:39:34;;;;;;;17.70;11.93;;;13.10;99.90;;;;;;5034056;28;20437;-56
2022/01/01 08:42:01;;;;;;;22.27;13.37;;;13.20;99.90;;;;;;5033379;28;20476;-56
2022/01/01 08:44:29;;;;;;;17.60;12.73;;;13.20;99.90;;;;;;5033210;28;20445;-56
2022/01/01 08:46:56;;;;;;;19.33;12.87;;;13.20;99.90;;;;;;5033266;28;20460;-56
2022/01/01 08:49:23;;;;;;;20.73;13.00;;;13.20;99.90;;;;;;5032915;28;20839;-56
2022/01/01 08:51:50;;;;;;;18.73;11.73;;;13.20;99.90;;;;;;5032923;28;20465;-55
2022/01/01 08:54:18;;;;;;;16.67;11.63;;;13.20;99.90;;;;;;5034100;28;20449;-56
2022/01/01 08:56:45;;;;;;;15.93;11.30;;;13.20;99.90;;;;;;5036781;28;20448;-55
2022/01/01 08:59:12;;;;;;;18.17;11.77;;;13.20;99.90;;;;;;5036454;28;20460;-55
2022/01/01 09:01:40;;;;;;;18.27;11.87;;;13.30;99.90;;;;;;5036751;28;20464;-56
2022/01/01 09:04:07;;;;;;;21.07;13.63;;;13.30;99.90;;;;;;5036667;28;20449;-55
2022/01/01 09:06:34;;;;;;;19.50;11.67;;;13.30;99.90;;;;;;5036644;28;20813;-56
2022/01/01 09:09:01;;;;;;;16.63;11.30;;;13.30;99.90;;;;;;5036461;28;21015;-56
2022/01/01 09:11:28;;;;;;;22.30;11.10;;;13.40;99.90;;;;;;5036074;28;20976;-55
2022/01/01 09:13:55;;;;;;;16.43;10.90;;;13.40;99.90;;;;;;5036341;28;20449;-56
2022/01/01 09:16:29;;;;;;;17.77;11.83;;;13.40;99.90;;;;;;5036617;28;20452;-56
2022/01/01 09:18:57;;;;;;;23.93;11.17;;;13.40;99.90;;;;;;5036274;28;20425;-56
2022/01/01 09:21:25;;;;;;;21.23;11.40;;;13.50;99.90;;;;;;5036097;28;20563;-56
2022/01/01 09:23:52;;;;;;;17.90;9.60;;;13.50;99.90;;;;;;5036068;28;20531;-56
2022/01/01 09:26:21;;;;;;;17.50;11.00;;;13.50;99.90;;;;;;5035651;28;20449;-56
2022/01/01 09:28:48;;;;;;;15.87;10.70;;;13.60;99.90;;;;;;5035925;28;20535;-56
2022/01/01 09:31:15;;;;;;;15.53;9.83;;;13.60;99.90;;;;;;5035549;28;20465;-56
2022/01/01 09:33:42;;;;;;;16.70;9.63;;;13.70;99.90;;;;;;5035880;28;20449;-56
2022/01/01 09:36:14;;;;;;;18.17;10.33;;;13.70;99.90;;;;;;5035439;28;20972;-56
2022/01/01 09:38:42;;;;;;;20.90;10.77;;;13.70;99.90;;;;;;5035533;28;20433;-56
2022/01/01 09:41:10;;;;;;;17.70;9.87;;;13.70;99.90;;;;;;5035703;28;20475;-57
2022/01/01 09:43:38;;;;;;;17.57;10.90;;;13.70;99.90;;;;;;5035348;28;20452;-56
2022/01/01 09:46:05;;;;;;;18.67;10.90;;;13.80;99.90;;;;;;5035569;28;20455;-56
2022/01/01 09:48:33;;;;;;;18.80;10.80;;;13.80;99.90;;;;;;5035490;28;20472;-56
2022/01/01 09:51:02;;;;;;;19.20;12.07;;;13.80;99.90;;;;;;5035137;28;20968;-56
2022/01/01 09:53:32;;;;;;;20.07;12.50;;;13.80;99.90;;;;;;5035725;28;20445;-56
2022/01/01 09:56:01;;;;;;;20.33;11.50;;;13.80;99.90;;;;;;5035700;28;20448;-56
2022/01/01 09:58:31;;;;;;;19.00;12.53;;;13.80;99.90;;;;;;5035505;28;20453;-56
2022/01/01 10:00:59;;;;;;;17.47;12.00;;;13.80;99.90;;;;;;5035974;28;20445;-56
2022/01/01 10:03:30;;;;;;;15.73;11.40;;;13.80;99.90;;;;;;5035386;28;20937;-56
2022/01/01 10:06:01;;;;;;;18.57;12.30;;;13.80;99.90;;;;;;5034906;28;20916;-56
2022/01/01 10:08:28;;;;;;;15.50;10.90;;;13.80;99.90;;;;;;5035265;28;20481;-56
2022/01/01 10:10:57;;;;;;;22.10;11.20;;;13.80;99.90;;;;;;5035196;28;20449;-56
2022/01/01 10:13:29;;;;;;;26.00;12.03;;;13.80;99.90;;;;;;5035210;28;20445;-56
2022/01/01 10:15:57;;;;;;;19.50;10.73;;;13.90;99.90;;;;;;5035706;28;20449;-56
2022/01/01 10:18:29;;;;;;;17.73;11.00;;;13.90;99.90;;;;;;5035934;28;20445;-56
2022/01/01 10:20:57;;;;;;;14.23;10.30;;;14.00;99.90;;;;;;5035447;28;20472;-57
2022/01/01 10:23:28;;;;;;;15.00;9.70;;;14.00;99.90;;;;;;5037269;28;20421;-56
2022/01/01 10:28:51;;;;;;;18.70;10.30;;;14.00;99.90;;;;;;5093671;27;20505;-56
2022/01/01 10:31:18;;;;;;;16.30;10.17;;;14.00;99.90;;;;;;5091985;28;20462;-55
2022/01/01 10:33:45;;;;;;;17.60;8.97;;;14.00;99.90;;;;;;5092862;28;20454;-57
2022/01/01 10:36:15;;;;;;;17.10;9.70;;;14.10;99.90;;;;;;5092872;28;20470;-56
2022/01/01 10:38:42;;;;;;;12.17;8.70;;;14.10;99.90;;;;;;5091145;28;20439;-56
2022/01/01 10:41:10;;;;;;;15.47;9.43;;;14.20;99.90;;;;;;5092450;28;20474;-56
2022/01/01 10:43:39;;;;;;;21.57;9.20;;;14.20;99.90;;;;;;5093992;28;20446;-55
2022/01/01 10:46:10;;;;;;;18.60;9.10;;;14.20;99.90;;;;;;5093637;28;20442;-55
2022/01/01 10:48:55;;;;;;;15.63;7.93;;;14.30;99.90;;;;;;5092429;28;20477;-55
2022/01/01 10:51:23;;;;;;;14.47;7.93;;;14.20;99.90;;;;;;5090978;28;20560;-55
2022/01/01 10:54:02;;;;;;;14.23;8.37;;;14.30;99.90;;;;;;5090500;28;20445;-55
2022/01/01 10:56:37;;;;;;;13.90;8.03;;;14.40;99.90;;;;;;5090633;28;20841;-55
2022/01/01 10:59:04;;;;;;;10.60;7.93;;;14.50;99.90;;;;;;5090783;28;20488;-56
2022/01/01 11:01:37;;;;;;;9.90;7.00;;;14.50;99.90;;;;;;5090248;28;20985;-56
2022/01/01 11:04:05;;;;;;;17.30;7.17;;;14.50;99.90;;;;;;5091032;28;20426;-56
2022/01/01 11:06:33;;;;;;;13.50;7.50;;;14.50;99.90;;;;;;5090627;28;20449;-56
2022/01/01 11:09:02;;;;;;;16.63;7.87;;;14.50;99.90;;;;;;5090329;28;20447;-56
2022/01/01 11:11:31;;;;;;;13.93;7.40;;;14.60;99.90;;;;;;5076690;22;21058;-56
2022/01/01 11:13:59;;;;;;;11.20;6.87;;;14.60;99.90;;;;;;5049730;28;20459;-57
2022/01/01 11:16:27;;;;;;;13.90;7.30;;;14.60;99.90;;;;;;5049655;28;20543;-57
2022/01/01 11:18:56;;;;;;;14.10;6.70;;;14.70;99.90;;;;;;5049815;28;20940;-56
2022/01/01 11:21:24;;;;;;;10.20;7.00;;;14.70;99.90;;;;;;5049756;28;20487;-58
2022/01/01 11:23:51;;;;;;;13.27;7.00;;;14.70;99.90;;;;;;5049322;28;20451;-57
2022/01/01 11:26:19;;;;;;;10.60;7.60;;;14.80;99.90;;;;;;5049268;28;20456;-56
2022/01/01 11:28:46;;;;;;;10.30;7.20;;;14.80;99.90;;;;;;5049601;28;20487;-57
2022/01/01 11:31:16;;;;;;;13.20;8.00;;;14.90;99.90;;;;;;5049731;28;20467;-56
2022/01/01 11:33:47;;;;;;;12.83;7.60;;;15.00;99.90;;;;;;5049316;28;20942;-58
2022/01/01 11:36:22;;;;;;;12.10;7.00;;;15.00;99.90;;;;;;5049844;28;20503;-57
2022/01/01 11:38:49;;;;;;;12.77;6.97;;;15.00;99.90;;;;;;5043600;28;20448;-57
2022/01/01 11:41:18;;;;;;;10.03;6.27;;;15.10;99.90;;;;;;5035887;28;20471;-57
2022/01/01 11:43:47;;;;;;;15.60;7.83;;;15.10;99.90;;;;;;5035961;28;20491;-56
2022/01/01 11:46:16;;;;;;;11.90;7.83;;;15.10;99.90;;;;;;5036538;28;20610;-56
2022/01/01 11:48:46;;;;;;;11.03;7.03;;;15.10;99.90;;;;;;5035953;28;20484;-57
2022/01/01 11:51:33;;;;;;;13.20;7.80;;;15.10;99.90;;;;;;5035827;28;20582;-58
2022/01/01 11:54:16;;;;;;;9.70;6.80;;;15.10;99.90;;;;;;5036006;28;20840;-57
2022/01/01 11:56:58;;;;;;;10.53;7.40;;;15.00;99.90;;;;;;5035943;28;20429;-58
2022/01/01 11:59:26;;;;;;;15.37;8.40;;;15.10;99.90;;;;;;5036137;28;20471;-57
2022/01/01 12:01:55;;;;;;;11.60;6.53;;;15.00;99.90;;;;;;5036915;28;20827;-60
2022/01/01 12:04:25;;;;;;;11.23;7.30;;;15.10;99.90;;;;;;5036230;28;20445;-61
2022/01/01 12:07:00;;;;;;;11.57;7.00;;;15.10;99.90;;;;;;5040677;28;20488;-57
2022/01/01 12:09:28;;;;;;;11.53;6.97;;;15.20;99.90;;;;;;5036143;28;20836;-58
2022/01/01 12:11:58;;;;;;;9.53;5.80;;;15.20;99.90;;;;;;5035481;28;21019;-58
2022/01/01 12:14:28;;;;;;;9.40;5.23;;;15.20;99.90;;;;;;5035209;28;20449;-57
2022/01/01 12:16:56;;;;;;;9.80;5.50;;;15.30;99.90;;;;;;5035610;28;20826;-57
2022/01/01 12:19:24;;;;;;;11.63;5.03;;;15.20;99.90;;;;;;5035199;28;20449;-56
2022/01/01 12:22:04;;;;;;;7.40;5.50;;;15.20;99.90;;;;;;5035575;28;20495;-56
2022/01/01 12:24:35;;;;;;;10.10;6.33;;;15.20;99.90;;;;;;5035113;28;20447;-57
2022/01/01 12:27:12;;;;;;;9.37;5.50;;;15.10;99.90;;;;;;5035472;28;20495;-59
2022/01/01 12:29:39;;;;;;;8.50;4.73;;;15.10;99.90;;;;;;5034891;28;20913;-59
2022/01/01 12:32:08;;;;;;;11.07;5.50;;;15.10;99.90;;;;;;5034938;28;20951;-58
2022/01/01 12:34:36;;;;;;;10.83;5.00;;;15.00;99.90;;;;;;5035358;28;20480;-59
2022/01/01 12:37:08;;;;;;;12.93;5.47;;;15.10;99.90;;;;;;5035270;28;20449;-59
2022/01/01 12:40:00;;;;;;;10.37;4.87;;;15.10;99.90;;;;;;5034978;28;20452;-61